Terminal Aerodrome Forecast
Issued by NWS

Home | Current Version | Previous Version | Text Only | Print | Product List | Glossary On
Versions: 1 2 3 4 5 6 7 8 9 10 11 12 13 14 15 16
000
FTUS42 KTAE 252300 CCA
TAFVLD
TAF COR
KVLD 252349Z 2600/2624 20005KT P6SM FEW250
     FM260700 22009G18KT P6SM SCT050 BKN120
     FM261900 28013G22KT P6SM BKN040
     FM262300 29008KT P6SM SCT250=

USA.gov is the U.S. government's official web portal to all federal, state and local government web resources and services.